<?xml version="1.0" encoding="UTF-8" standalone="no" ?>
<gpx xmlns="http://www.topografix.com/GPX/1/1" xmlns:xsi="http://www.w3.org/2001/XMLSchema-instance" xsi:schemaLocation="http://www.topografix.com/GPX/1/1 http://www.topografix.com/GPX/1/1/gpx.xsd" version="1.1" creator="VisuGPX - https://www.visugpx.com">
  <metadata>
    <name>9328019-YZERON G1</name>
  </metadata>
  <trk>
    <name><![CDATA[9328019-YZERON G1]]></name>
    <trkseg>
      <trkpt lat="45.70856" lon="4.58343">
        <ele>708</ele>
        <time>2021-11-11T17:30:02Z</time>
      </trkpt>
      <trkpt lat="45.70903" lon="4.58299">
        <ele>713</ele>
        <time>2021-11-11T17:31:17Z</time>
      </trkpt>
      <trkpt lat="45.70908" lon="4.58212">
        <ele>713</ele>
        <time>2021-11-11T17:32:38Z</time>
      </trkpt>
      <trkpt lat="45.7096" lon="4.58013">
        <ele>715</ele>
        <time>2021-11-11T17:35:56Z</time>
      </trkpt>
      <trkpt lat="45.71004" lon="4.57942">
        <ele>714</ele>
        <time>2021-11-11T17:37:25Z</time>
      </trkpt>
      <trkpt lat="45.71009" lon="4.57901">
        <ele>714</ele>
        <time>2021-11-11T17:38:04Z</time>
      </trkpt>
      <trkpt lat="45.70993" lon="4.57881">
        <ele>716</ele>
        <time>2021-11-11T17:38:32Z</time>
      </trkpt>
      <trkpt lat="45.71081" lon="4.57807">
        <ele>717</ele>
        <time>2021-11-11T17:40:48Z</time>
      </trkpt>
      <trkpt lat="45.71197" lon="4.57684">
        <ele>723</ele>
        <time>2021-11-11T17:44:01Z</time>
      </trkpt>
      <trkpt lat="45.71168" lon="4.5761">
        <ele>725</ele>
        <time>2021-11-11T17:45:20Z</time>
      </trkpt>
      <trkpt lat="45.71141" lon="4.57569">
        <ele>734</ele>
        <time>2021-11-11T17:46:12Z</time>
      </trkpt>
      <trkpt lat="45.71104" lon="4.5759">
        <ele>741</ele>
        <time>2021-11-11T17:47:05Z</time>
      </trkpt>
      <trkpt lat="45.71086" lon="4.57541">
        <ele>752</ele>
        <time>2021-11-11T17:47:57Z</time>
      </trkpt>
      <trkpt lat="45.71113" lon="4.57475">
        <ele>751</ele>
        <time>2021-11-11T17:49:08Z</time>
      </trkpt>
      <trkpt lat="45.71104" lon="4.57372">
        <ele>759</ele>
        <time>2021-11-11T17:50:45Z</time>
      </trkpt>
      <trkpt lat="45.71054" lon="4.57257">
        <ele>768</ele>
        <time>2021-11-11T17:52:51Z</time>
      </trkpt>
      <trkpt lat="45.7099" lon="4.57147">
        <ele>783</ele>
        <time>2021-11-11T17:55:05Z</time>
      </trkpt>
      <trkpt lat="45.7096" lon="4.57009">
        <ele>785</ele>
        <time>2021-11-11T17:57:19Z</time>
      </trkpt>
      <trkpt lat="45.70867" lon="4.56905">
        <ele>796</ele>
        <time>2021-11-11T17:59:57Z</time>
      </trkpt>
      <trkpt lat="45.70822" lon="4.56767">
        <ele>801</ele>
        <time>2021-11-11T18:02:19Z</time>
      </trkpt>
      <trkpt lat="45.70867" lon="4.56805">
        <ele>797</ele>
        <time>2021-11-11T18:03:28Z</time>
      </trkpt>
      <trkpt lat="45.70967" lon="4.56864">
        <ele>793</ele>
        <time>2021-11-11T18:05:53Z</time>
      </trkpt>
      <trkpt lat="45.71104" lon="4.56971">
        <ele>793</ele>
        <time>2021-11-11T18:09:21Z</time>
      </trkpt>
      <trkpt lat="45.71164" lon="4.5703">
        <ele>789</ele>
        <time>2021-11-11T18:10:58Z</time>
      </trkpt>
      <trkpt lat="45.71211" lon="4.57101">
        <ele>783</ele>
        <time>2021-11-11T18:12:29Z</time>
      </trkpt>
      <trkpt lat="45.71243" lon="4.57109">
        <ele>785</ele>
        <time>2021-11-11T18:13:13Z</time>
      </trkpt>
      <trkpt lat="45.71261" lon="4.57063">
        <ele>792</ele>
        <time>2021-11-11T18:14:02Z</time>
      </trkpt>
      <trkpt lat="45.71261" lon="4.56999">
        <ele>797</ele>
        <time>2021-11-11T18:15:01Z</time>
      </trkpt>
      <trkpt lat="45.71295" lon="4.56797">
        <ele>814</ele>
        <time>2021-11-11T18:18:15Z</time>
      </trkpt>
      <trkpt lat="45.71312" lon="4.56749">
        <ele>820</ele>
        <time>2021-11-11T18:19:05Z</time>
      </trkpt>
      <trkpt lat="45.71396" lon="4.56693">
        <ele>811</ele>
        <time>2021-11-11T18:21:09Z</time>
      </trkpt>
      <trkpt lat="45.71423" lon="4.56586">
        <ele>817</ele>
        <time>2021-11-11T18:22:55Z</time>
      </trkpt>
      <trkpt lat="45.71428" lon="4.5644">
        <ele>823</ele>
        <time>2021-11-11T18:25:11Z</time>
      </trkpt>
      <trkpt lat="45.71426" lon="4.56397">
        <ele>823</ele>
        <time>2021-11-11T18:25:51Z</time>
      </trkpt>
      <trkpt lat="45.71466" lon="4.56435">
        <ele>825</ele>
        <time>2021-11-11T18:26:55Z</time>
      </trkpt>
      <trkpt lat="45.71526" lon="4.56575">
        <ele>830</ele>
        <time>2021-11-11T18:29:28Z</time>
      </trkpt>
      <trkpt lat="45.71613" lon="4.56703">
        <ele>841</ele>
        <time>2021-11-11T18:32:15Z</time>
      </trkpt>
      <trkpt lat="45.71663" lon="4.56731">
        <ele>846</ele>
        <time>2021-11-11T18:33:26Z</time>
      </trkpt>
      <trkpt lat="45.71704" lon="4.56683">
        <ele>848</ele>
        <time>2021-11-11T18:34:37Z</time>
      </trkpt>
      <trkpt lat="45.7177" lon="4.56662">
        <ele>854</ele>
        <time>2021-11-11T18:36:07Z</time>
      </trkpt>
      <trkpt lat="45.71861" lon="4.5669">
        <ele>849</ele>
        <time>2021-11-11T18:38:11Z</time>
      </trkpt>
      <trkpt lat="45.71923" lon="4.56757">
        <ele>829</ele>
        <time>2021-11-11T18:39:55Z</time>
      </trkpt>
      <trkpt lat="45.71988" lon="4.56767">
        <ele>823</ele>
        <time>2021-11-11T18:41:22Z</time>
      </trkpt>
      <trkpt lat="45.72034" lon="4.56752">
        <ele>820</ele>
        <time>2021-11-11T18:42:25Z</time>
      </trkpt>
      <trkpt lat="45.72071" lon="4.5682">
        <ele>812</ele>
        <time>2021-11-11T18:43:46Z</time>
      </trkpt>
      <trkpt lat="45.72105" lon="4.56823">
        <ele>813</ele>
        <time>2021-11-11T18:44:31Z</time>
      </trkpt>
      <trkpt lat="45.72121" lon="4.56639">
        <ele>800</ele>
        <time>2021-11-11T18:47:24Z</time>
      </trkpt>
      <trkpt lat="45.7216" lon="4.56463">
        <ele>786</ele>
        <time>2021-11-11T18:50:16Z</time>
      </trkpt>
      <trkpt lat="45.72251" lon="4.56264">
        <ele>769</ele>
        <time>2021-11-11T18:53:57Z</time>
      </trkpt>
      <trkpt lat="45.72331" lon="4.56162">
        <ele>750</ele>
        <time>2021-11-11T18:56:20Z</time>
      </trkpt>
      <trkpt lat="45.72349" lon="4.5604">
        <ele>740</ele>
        <time>2021-11-11T18:58:17Z</time>
      </trkpt>
      <trkpt lat="45.72335" lon="4.55963">
        <ele>736</ele>
        <time>2021-11-11T18:59:31Z</time>
      </trkpt>
      <trkpt lat="45.72317" lon="4.55889">
        <ele>736</ele>
        <time>2021-11-11T19:00:44Z</time>
      </trkpt>
      <trkpt lat="45.72331" lon="4.5571">
        <ele>733</ele>
        <time>2021-11-11T19:03:31Z</time>
      </trkpt>
      <trkpt lat="45.72494" lon="4.55496">
        <ele>731</ele>
        <time>2021-11-11T19:08:27Z</time>
      </trkpt>
      <trkpt lat="45.72552" lon="4.55371">
        <ele>716</ele>
        <time>2021-11-11T19:10:46Z</time>
      </trkpt>
      <trkpt lat="45.72572" lon="4.553">
        <ele>706</ele>
        <time>2021-11-11T19:11:58Z</time>
      </trkpt>
      <trkpt lat="45.72624" lon="4.5507">
        <ele>689</ele>
        <time>2021-11-11T19:15:43Z</time>
      </trkpt>
      <trkpt lat="45.72604" lon="4.54889">
        <ele>673</ele>
        <time>2021-11-11T19:18:34Z</time>
      </trkpt>
      <trkpt lat="45.72672" lon="4.54863">
        <ele>671</ele>
        <time>2021-11-11T19:20:08Z</time>
      </trkpt>
      <trkpt lat="45.72779" lon="4.54896">
        <ele>663</ele>
        <time>2021-11-11T19:22:34Z</time>
      </trkpt>
      <trkpt lat="45.72864" lon="4.54909">
        <ele>653</ele>
        <time>2021-11-11T19:24:28Z</time>
      </trkpt>
      <trkpt lat="45.72951" lon="4.54983">
        <ele>650</ele>
        <time>2021-11-11T19:26:43Z</time>
      </trkpt>
      <trkpt lat="45.72975" lon="4.55055">
        <ele>649</ele>
        <time>2021-11-11T19:27:57Z</time>
      </trkpt>
      <trkpt lat="45.73156" lon="4.55292">
        <ele>622</ele>
        <time>2021-11-11T19:33:24Z</time>
      </trkpt>
      <trkpt lat="45.73238" lon="4.55374">
        <ele>619</ele>
        <time>2021-11-11T19:35:38Z</time>
      </trkpt>
      <trkpt lat="45.73299" lon="4.55407">
        <ele>618</ele>
        <time>2021-11-11T19:37:05Z</time>
      </trkpt>
      <trkpt lat="45.73432" lon="4.55542">
        <ele>604</ele>
        <time>2021-11-11T19:40:42Z</time>
      </trkpt>
      <trkpt lat="45.73521" lon="4.55588">
        <ele>600</ele>
        <time>2021-11-11T19:42:48Z</time>
      </trkpt>
      <trkpt lat="45.73625" lon="4.55585">
        <ele>590</ele>
        <time>2021-11-11T19:45:07Z</time>
      </trkpt>
      <trkpt lat="45.73675" lon="4.5567">
        <ele>586</ele>
        <time>2021-11-11T19:46:51Z</time>
      </trkpt>
      <trkpt lat="45.73694" lon="4.55749">
        <ele>573</ele>
        <time>2021-11-11T19:48:09Z</time>
      </trkpt>
      <trkpt lat="45.73783" lon="4.55907">
        <ele>552</ele>
        <time>2021-11-11T19:51:18Z</time>
      </trkpt>
      <trkpt lat="45.73833" lon="4.55902">
        <ele>545</ele>
        <time>2021-11-11T19:52:25Z</time>
      </trkpt>
      <trkpt lat="45.73894" lon="4.55971">
        <ele>538</ele>
        <time>2021-11-11T19:54:08Z</time>
      </trkpt>
      <trkpt lat="45.73958" lon="4.5595">
        <ele>523</ele>
        <time>2021-11-11T19:55:36Z</time>
      </trkpt>
      <trkpt lat="45.74077" lon="4.55922">
        <ele>505</ele>
        <time>2021-11-11T19:58:17Z</time>
      </trkpt>
      <trkpt lat="45.74146" lon="4.55899">
        <ele>495</ele>
        <time>2021-11-11T19:59:51Z</time>
      </trkpt>
      <trkpt lat="45.74243" lon="4.55894">
        <ele>487</ele>
        <time>2021-11-11T20:02:01Z</time>
      </trkpt>
      <trkpt lat="45.74305" lon="4.55892">
        <ele>481</ele>
        <time>2021-11-11T20:03:24Z</time>
      </trkpt>
      <trkpt lat="45.74417" lon="4.55787">
        <ele>456</ele>
        <time>2021-11-11T20:06:22Z</time>
      </trkpt>
      <trkpt lat="45.74472" lon="4.55797">
        <ele>453</ele>
        <time>2021-11-11T20:07:36Z</time>
      </trkpt>
      <trkpt lat="45.74481" lon="4.55833">
        <ele>456</ele>
        <time>2021-11-11T20:08:12Z</time>
      </trkpt>
      <trkpt lat="45.74481" lon="4.55887">
        <ele>461</ele>
        <time>2021-11-11T20:09:02Z</time>
      </trkpt>
      <trkpt lat="45.74547" lon="4.55981">
        <ele>449</ele>
        <time>2021-11-11T20:11:06Z</time>
      </trkpt>
      <trkpt lat="45.7459" lon="4.56063">
        <ele>436</ele>
        <time>2021-11-11T20:12:42Z</time>
      </trkpt>
      <trkpt lat="45.7459" lon="4.56098">
        <ele>432</ele>
        <time>2021-11-11T20:13:15Z</time>
      </trkpt>
      <trkpt lat="45.7452" lon="4.56114">
        <ele>441</ele>
        <time>2021-11-11T20:14:49Z</time>
      </trkpt>
      <trkpt lat="45.74499" lon="4.56157">
        <ele>440</ele>
        <time>2021-11-11T20:15:38Z</time>
      </trkpt>
      <trkpt lat="45.7452" lon="4.56205">
        <ele>432</ele>
        <time>2021-11-11T20:16:31Z</time>
      </trkpt>
      <trkpt lat="45.7454" lon="4.56333">
        <ele>421</ele>
        <time>2021-11-11T20:18:33Z</time>
      </trkpt>
      <trkpt lat="45.74544" lon="4.56402">
        <ele>411</ele>
        <time>2021-11-11T20:19:37Z</time>
      </trkpt>
      <trkpt lat="45.74488" lon="4.56458">
        <ele>419</ele>
        <time>2021-11-11T20:21:09Z</time>
      </trkpt>
      <trkpt lat="45.74528" lon="4.56494">
        <ele>406</ele>
        <time>2021-11-11T20:22:12Z</time>
      </trkpt>
      <trkpt lat="45.74528" lon="4.56591">
        <ele>406</ele>
        <time>2021-11-11T20:23:42Z</time>
      </trkpt>
      <trkpt lat="45.74483" lon="4.56672">
        <ele>404</ele>
        <time>2021-11-11T20:25:18Z</time>
      </trkpt>
      <trkpt lat="45.7438" lon="4.56711">
        <ele>420</ele>
        <time>2021-11-11T20:27:40Z</time>
      </trkpt>
      <trkpt lat="45.74414" lon="4.56787">
        <ele>398</ele>
        <time>2021-11-11T20:29:05Z</time>
      </trkpt>
      <trkpt lat="45.74405" lon="4.56823">
        <ele>395</ele>
        <time>2021-11-11T20:29:40Z</time>
      </trkpt>
      <trkpt lat="45.74273" lon="4.56961">
        <ele>398</ele>
        <time>2021-11-11T20:33:18Z</time>
      </trkpt>
      <trkpt lat="45.74271" lon="4.57009">
        <ele>388</ele>
        <time>2021-11-11T20:34:03Z</time>
      </trkpt>
      <trkpt lat="45.74239" lon="4.57032">
        <ele>392</ele>
        <time>2021-11-11T20:34:51Z</time>
      </trkpt>
      <trkpt lat="45.74182" lon="4.57076">
        <ele>393</ele>
        <time>2021-11-11T20:36:17Z</time>
      </trkpt>
      <trkpt lat="45.74202" lon="4.57111">
        <ele>395</ele>
        <time>2021-11-11T20:36:59Z</time>
      </trkpt>
      <trkpt lat="45.74196" lon="4.57142">
        <ele>399</ele>
        <time>2021-11-11T20:37:29Z</time>
      </trkpt>
      <trkpt lat="45.74258" lon="4.5717">
        <ele>410</ele>
        <time>2021-11-11T20:38:56Z</time>
      </trkpt>
      <trkpt lat="45.74313" lon="4.57176">
        <ele>417</ele>
        <time>2021-11-11T20:40:10Z</time>
      </trkpt>
      <trkpt lat="45.74345" lon="4.57268">
        <ele>435</ele>
        <time>2021-11-11T20:41:45Z</time>
      </trkpt>
      <trkpt lat="45.7433" lon="4.57291">
        <ele>440</ele>
        <time>2021-11-11T20:42:15Z</time>
      </trkpt>
      <trkpt lat="45.74322" lon="4.57459">
        <ele>474</ele>
        <time>2021-11-11T20:44:51Z</time>
      </trkpt>
      <trkpt lat="45.74356" lon="4.57524">
        <ele>482</ele>
        <time>2021-11-11T20:46:07Z</time>
      </trkpt>
      <trkpt lat="45.74375" lon="4.57564">
        <ele>488</ele>
        <time>2021-11-11T20:46:52Z</time>
      </trkpt>
      <trkpt lat="45.74405" lon="4.57679">
        <ele>509</ele>
        <time>2021-11-11T20:48:47Z</time>
      </trkpt>
      <trkpt lat="45.74413" lon="4.57757">
        <ele>519</ele>
        <time>2021-11-11T20:50:00Z</time>
      </trkpt>
      <trkpt lat="45.74394" lon="4.57838">
        <ele>532</ele>
        <time>2021-11-11T20:51:20Z</time>
      </trkpt>
      <trkpt lat="45.74404" lon="4.57892">
        <ele>537</ele>
        <time>2021-11-11T20:52:12Z</time>
      </trkpt>
      <trkpt lat="45.74393" lon="4.57962">
        <ele>541</ele>
        <time>2021-11-11T20:53:18Z</time>
      </trkpt>
      <trkpt lat="45.74441" lon="4.58045">
        <ele>551</ele>
        <time>2021-11-11T20:54:59Z</time>
      </trkpt>
      <trkpt lat="45.74446" lon="4.58074">
        <ele>553</ele>
        <time>2021-11-11T20:55:27Z</time>
      </trkpt>
      <trkpt lat="45.74492" lon="4.58165">
        <ele>569</ele>
        <time>2021-11-11T20:57:11Z</time>
      </trkpt>
      <trkpt lat="45.74578" lon="4.58322">
        <ele>599</ele>
        <time>2021-11-11T21:00:17Z</time>
      </trkpt>
      <trkpt lat="45.74538" lon="4.58394">
        <ele>614</ele>
        <time>2021-11-11T21:01:43Z</time>
      </trkpt>
      <trkpt lat="45.74483" lon="4.58417">
        <ele>623</ele>
        <time>2021-11-11T21:02:59Z</time>
      </trkpt>
      <trkpt lat="45.74349" lon="4.58435">
        <ele>634</ele>
        <time>2021-11-11T21:05:59Z</time>
      </trkpt>
      <trkpt lat="45.74285" lon="4.58477">
        <ele>633</ele>
        <time>2021-11-11T21:07:33Z</time>
      </trkpt>
      <trkpt lat="45.74285" lon="4.58531">
        <ele>637</ele>
        <time>2021-11-11T21:08:23Z</time>
      </trkpt>
      <trkpt lat="45.74292" lon="4.58688">
        <ele>658</ele>
        <time>2021-11-11T21:10:50Z</time>
      </trkpt>
      <trkpt lat="45.74264" lon="4.58718">
        <ele>658</ele>
        <time>2021-11-11T21:11:36Z</time>
      </trkpt>
      <trkpt lat="45.74159" lon="4.58771">
        <ele>659</ele>
        <time>2021-11-11T21:14:05Z</time>
      </trkpt>
      <trkpt lat="45.74096" lon="4.58812">
        <ele>658</ele>
        <time>2021-11-11T21:15:37Z</time>
      </trkpt>
      <trkpt lat="45.74006" lon="4.58944">
        <ele>662</ele>
        <time>2021-11-11T21:18:29Z</time>
      </trkpt>
      <trkpt lat="45.73919" lon="4.59177">
        <ele>673</ele>
        <time>2021-11-11T21:22:35Z</time>
      </trkpt>
      <trkpt lat="45.73885" lon="4.59307">
        <ele>679</ele>
        <time>2021-11-11T21:24:44Z</time>
      </trkpt>
      <trkpt lat="45.73797" lon="4.59433">
        <ele>684</ele>
        <time>2021-11-11T21:27:30Z</time>
      </trkpt>
      <trkpt lat="45.73751" lon="4.59523">
        <ele>698</ele>
        <time>2021-11-11T21:29:14Z</time>
      </trkpt>
      <trkpt lat="45.73655" lon="4.59554">
        <ele>712</ele>
        <time>2021-11-11T21:31:26Z</time>
      </trkpt>
      <trkpt lat="45.73591" lon="4.59529">
        <ele>721</ele>
        <time>2021-11-11T21:32:54Z</time>
      </trkpt>
      <trkpt lat="45.73552" lon="4.59496">
        <ele>730</ele>
        <time>2021-11-11T21:33:55Z</time>
      </trkpt>
      <trkpt lat="45.73472" lon="4.59346">
        <ele>741</ele>
        <time>2021-11-11T21:36:50Z</time>
      </trkpt>
      <trkpt lat="45.73431" lon="4.59327">
        <ele>747</ele>
        <time>2021-11-11T21:37:48Z</time>
      </trkpt>
      <trkpt lat="45.73365" lon="4.59377">
        <ele>759</ele>
        <time>2021-11-11T21:39:28Z</time>
      </trkpt>
      <trkpt lat="45.73331" lon="4.59446">
        <ele>772</ele>
        <time>2021-11-11T21:40:46Z</time>
      </trkpt>
      <trkpt lat="45.73287" lon="4.59485">
        <ele>769</ele>
        <time>2021-11-11T21:41:55Z</time>
      </trkpt>
      <trkpt lat="45.73225" lon="4.5948">
        <ele>760</ele>
        <time>2021-11-11T21:43:18Z</time>
      </trkpt>
      <trkpt lat="45.73172" lon="4.59476">
        <ele>761</ele>
        <time>2021-11-11T21:44:29Z</time>
      </trkpt>
      <trkpt lat="45.73083" lon="4.595">
        <ele>780</ele>
        <time>2021-11-11T21:46:30Z</time>
      </trkpt>
      <trkpt lat="45.73052" lon="4.59505">
        <ele>787</ele>
        <time>2021-11-11T21:47:11Z</time>
      </trkpt>
      <trkpt lat="45.72979" lon="4.59476">
        <ele>797</ele>
        <time>2021-11-11T21:48:53Z</time>
      </trkpt>
      <trkpt lat="45.72803" lon="4.5933">
        <ele>816</ele>
        <time>2021-11-11T21:53:24Z</time>
      </trkpt>
      <trkpt lat="45.72678" lon="4.59256">
        <ele>820</ele>
        <time>2021-11-11T21:56:24Z</time>
      </trkpt>
      <trkpt lat="45.72594" lon="4.5924">
        <ele>817</ele>
        <time>2021-11-11T21:58:18Z</time>
      </trkpt>
      <trkpt lat="45.72491" lon="4.59245">
        <ele>816</ele>
        <time>2021-11-11T22:00:35Z</time>
      </trkpt>
      <trkpt lat="45.72284" lon="4.59278">
        <ele>829</ele>
        <time>2021-11-11T22:05:13Z</time>
      </trkpt>
      <trkpt lat="45.72262" lon="4.59296">
        <ele>829</ele>
        <time>2021-11-11T22:05:47Z</time>
      </trkpt>
      <trkpt lat="45.72065" lon="4.58978">
        <ele>840</ele>
        <time>2021-11-11T22:12:23Z</time>
      </trkpt>
      <trkpt lat="45.72035" lon="4.5889">
        <ele>843</ele>
        <time>2021-11-11T22:13:54Z</time>
      </trkpt>
      <trkpt lat="45.71898" lon="4.587">
        <ele>833</ele>
        <time>2021-11-11T22:18:09Z</time>
      </trkpt>
      <trkpt lat="45.71802" lon="4.58594">
        <ele>821</ele>
        <time>2021-11-11T22:20:50Z</time>
      </trkpt>
      <trkpt lat="45.71754" lon="4.5856">
        <ele>816</ele>
        <time>2021-11-11T22:22:02Z</time>
      </trkpt>
      <trkpt lat="45.71575" lon="4.58426">
        <ele>837</ele>
        <time>2021-11-11T22:26:31Z</time>
      </trkpt>
      <trkpt lat="45.71537" lon="4.58377">
        <ele>842</ele>
        <time>2021-11-11T22:27:40Z</time>
      </trkpt>
      <trkpt lat="45.71468" lon="4.5835">
        <ele>849</ele>
        <time>2021-11-11T22:29:15Z</time>
      </trkpt>
      <trkpt lat="45.71443" lon="4.58417">
        <ele>855</ele>
        <time>2021-11-11T22:30:26Z</time>
      </trkpt>
      <trkpt lat="45.71351" lon="4.58542">
        <ele>854</ele>
        <time>2021-11-11T22:33:15Z</time>
      </trkpt>
      <trkpt lat="45.71306" lon="4.58563">
        <ele>852</ele>
        <time>2021-11-11T22:34:18Z</time>
      </trkpt>
      <trkpt lat="45.71274" lon="4.58614">
        <ele>846</ele>
        <time>2021-11-11T22:35:22Z</time>
      </trkpt>
      <trkpt lat="45.71202" lon="4.58782">
        <ele>812</ele>
        <time>2021-11-11T22:38:26Z</time>
      </trkpt>
      <trkpt lat="45.71165" lon="4.58816">
        <ele>806</ele>
        <time>2021-11-11T22:39:24Z</time>
      </trkpt>
      <trkpt lat="45.71137" lon="4.58856">
        <ele>793</ele>
        <time>2021-11-11T22:40:17Z</time>
      </trkpt>
      <trkpt lat="45.71069" lon="4.58897">
        <ele>771</ele>
        <time>2021-11-11T22:41:56Z</time>
      </trkpt>
      <trkpt lat="45.71089" lon="4.58958">
        <ele>766</ele>
        <time>2021-11-11T22:42:58Z</time>
      </trkpt>
      <trkpt lat="45.71134" lon="4.58973">
        <ele>768</ele>
        <time>2021-11-11T22:44:00Z</time>
      </trkpt>
      <trkpt lat="45.71229" lon="4.58946">
        <ele>770</ele>
        <time>2021-11-11T22:46:09Z</time>
      </trkpt>
      <trkpt lat="45.71159" lon="4.59018">
        <ele>758</ele>
        <time>2021-11-11T22:48:04Z</time>
      </trkpt>
      <trkpt lat="45.71122" lon="4.59027">
        <ele>752</ele>
        <time>2021-11-11T22:48:54Z</time>
      </trkpt>
      <trkpt lat="45.71104" lon="4.59058">
        <ele>741</ele>
        <time>2021-11-11T22:49:32Z</time>
      </trkpt>
      <trkpt lat="45.71039" lon="4.59016">
        <ele>737</ele>
        <time>2021-11-11T22:51:07Z</time>
      </trkpt>
      <trkpt lat="45.70969" lon="4.58935">
        <ele>731</ele>
        <time>2021-11-11T22:53:07Z</time>
      </trkpt>
      <trkpt lat="45.70902" lon="4.58861">
        <ele>718</ele>
        <time>2021-11-11T22:55:00Z</time>
      </trkpt>
      <trkpt lat="45.7089" lon="4.58843">
        <ele>716</ele>
        <time>2021-11-11T22:55:23Z</time>
      </trkpt>
      <trkpt lat="45.70804" lon="4.58888">
        <ele>703</ele>
        <time>2021-11-11T22:57:26Z</time>
      </trkpt>
      <trkpt lat="45.70781" lon="4.58921">
        <ele>705</ele>
        <time>2021-11-11T22:58:09Z</time>
      </trkpt>
      <trkpt lat="45.70824" lon="4.59027">
        <ele>703</ele>
        <time>2021-11-11T23:00:03Z</time>
      </trkpt>
      <trkpt lat="45.70858" lon="4.59074">
        <ele>701</ele>
        <time>2021-11-11T23:01:06Z</time>
      </trkpt>
      <trkpt lat="45.70841" lon="4.59133">
        <ele>703</ele>
        <time>2021-11-11T23:02:06Z</time>
      </trkpt>
      <trkpt lat="45.708" lon="4.59094">
        <ele>709</ele>
        <time>2021-11-11T23:03:11Z</time>
      </trkpt>
      <trkpt lat="45.70774" lon="4.59065">
        <ele>712</ele>
        <time>2021-11-11T23:03:55Z</time>
      </trkpt>
      <trkpt lat="45.70736" lon="4.58928">
        <ele>711</ele>
        <time>2021-11-11T23:06:13Z</time>
      </trkpt>
      <trkpt lat="45.70716" lon="4.58903">
        <ele>715</ele>
        <time>2021-11-11T23:06:48Z</time>
      </trkpt>
      <trkpt lat="45.70716" lon="4.58798">
        <ele>715</ele>
        <time>2021-11-11T23:08:26Z</time>
      </trkpt>
      <trkpt lat="45.70695" lon="4.58675">
        <ele>718</ele>
        <time>2021-11-11T23:10:24Z</time>
      </trkpt>
      <trkpt lat="45.70684" lon="4.58524">
        <ele>716</ele>
        <time>2021-11-11T23:12:46Z</time>
      </trkpt>
      <trkpt lat="45.70724" lon="4.58433">
        <ele>713</ele>
        <time>2021-11-11T23:14:26Z</time>
      </trkpt>
      <trkpt lat="45.70737" lon="4.58322">
        <ele>716</ele>
        <time>2021-11-11T23:16:11Z</time>
      </trkpt>
      <trkpt lat="45.7077" lon="4.58204">
        <ele>718</ele>
        <time>2021-11-11T23:18:09Z</time>
      </trkpt>
      <trkpt lat="45.70891" lon="4.58258">
        <ele>712</ele>
        <time>2021-11-11T23:20:58Z</time>
      </trkpt>
    </trkseg>
  </trk>
</gpx>